This is the latest recevied weather packets stored in our database for station/object AA8FM-13. If no packets are shown the sender has not sent any weather packets the latest 1 day(s).
| Time | Temp. | Humidity | Pressure | Rain* | Wind** | Luminosity | Snow |
|---|---|---|---|---|---|---|---|
| 1778066292 | 12.78° C | 99% | 1004.7 hPa | 6.1 mm | 0 m/s | 6 W/m² | - |
| 1778065990 | 12.78° C | 99% | 1004.8 hPa | 6.1 mm | 0 m/s | 4 W/m² | - |
| 1778065687 | 12.78° C | 99% | 1004.8 hPa | 4.32 mm | 0 m/s | 6 W/m² | - |
| 1778065384 | 12.78° C | 99% | 1004.7 hPa | 3.05 mm | 0 m/s | 4 W/m² | - |
| 1778065081 | 12.78° C | 99% | 1004.6 hPa | 1.78 mm | 0 m/s | 5 W/m² | - |
| 1778064778 | 12.78° C | 99% | 1004.7 hPa | 3.05 mm | 0 m/s | 5 W/m² | - |
| 1778064475 | 12.78° C | 99% | 1004.6 hPa | 1.27 mm | 0 m/s | 6 W/m² | - |
| 1778064173 | 12.78° C | 99% | 1004.6 hPa | 1.78 mm | 0 m/s | 4 W/m² | - |
| 1778063871 | 12.78° C | 99% | 1004.5 hPa | 1.78 mm | 0 m/s | 2 W/m² | - |
| 1778063567 | 12.78° C | 99% | 1004.7 hPa | 3.05 mm | 0 m/s | 1 W/m² | - |
| 1778063265 | 12.78° C | 99% | 1004.7 hPa | 4.83 mm | 0 m/s | 1 W/m² | - |
| 1778062963 | 12.78° C | 99% | 1004.7 hPa | 4.83 mm | 0.45 m/s, 150° | 0 W/m² | - |
| 1778062659 | 12.78° C | 99% | 1004.6 hPa | 4.32 mm | 0 m/s | 0 W/m² | - |
| 1778062356 | 12.78° C | 99% | 1004.6 hPa | 3.05 mm | 0 m/s | 0 W/m² | - |
| 1778062054 | 12.78° C | 99% | 1004.5 hPa | 1.78 mm | 0 m/s | 0 W/m² | - |
| 1778061752 | 12.78° C | 99% | 1004.5 hPa | 3.05 mm | 0.89 m/s, 186° | 0 W/m² | - |
| 1778061450 | 12.78° C | 99% | 1004.5 hPa | 3.05 mm | 0.45 m/s, 220° | 0 W/m² | - |
| 1778061146 | 12.78° C | 99% | 1004.6 hPa | 3.05 mm | 0.89 m/s, 201° | 0 W/m² | - |
| 1778060843 | 13.33° C | 99% | 1004.9 hPa | 4.32 mm | 0.89 m/s, 153° | 0 W/m² | - |
| 1778060542 | 13.33° C | 99% | 1005.4 hPa | 7.87 mm | 0 m/s | 0 W/m² | - |
| 1778060240 | 13.33° C | 99% | 1005.4 hPa | 7.87 mm | 0 m/s | 0 W/m² | - |
| 1778059937 | 13.33° C | 99% | 1005.3 hPa | 6.1 mm | 0 m/s | 0 W/m² | - |
| 1778059635 | 13.33° C | 99% | 1005.2 hPa | 4.83 mm | 0 m/s | 0 W/m² | - |
| 1778059332 | 13.33° C | 99% | 1005.5 hPa | 4.32 mm | 0 m/s | 0 W/m² | - |
| 1778059030 | 13.33° C | 99% | 1005.2 hPa | 6.1 mm | 0 m/s | 0 W/m² | - |
* Rain latest hour (hover to see other rain measurements)
** Current wind speed in m/s (hover to see current wind gust speed)